Aviation Digital Data Service (ADDS)

Output produced by METARs form (0203 UTC 16 January 2019)
found at http://www.aviationweather.gov/metar/data/
 
TAF LOXA 151415Z 1515/1524 23008KT 9999 FEW015 BKN035 
     TEMPO 1515/1522 25012G25KT 6000 -SN FEW010 BKN020
       
LOWG 160150Z AUTO VRB02KT 9999 SCT160 BKN230 M02/M05 Q1015
TAF LOWG 152315Z 1600/1624 33004KT 9999 FEW070 BKN200 TX06/1614Z TNM05/1605Z
       
LOWI 160150Z AUTO VRB01KT 0500 R08/P1500D R26/0450N FZBCFG FEW001 BKN004 M07/M07 Q1020
TAF LOWI 152315Z 1600/1624 VRB02KT CAVOK TX03/1614Z TNM06/1607Z 
     PROB30 
     TEMPO 1600/1608 0800 BCFG FEW003
       
LOWK 160150Z AUTO 31005KT 9999 FEW100 M04/M07 Q1017
TAF LOWK 152315Z 1600/1624 VRB02KT 9999 FEW060 SCT250 TX03/1614Z TNM06/1606Z
       
LOWL 160150Z AUTO 26016KT 9999 FEW040 BKN042 04/M01 Q1017
TAF LOWL 152315Z 1600/1624 27015KT 9999 SCT020 BKN045 TX05/1612Z TNM01/1624Z 
     BECMG 1602/1604 28010KT FEW035 SCT150 
     BECMG 1608/1611 30004KT CAVOK 
     PROB40 1622/1624 VRB01KT 4000 BR NSC
       
LOWS 160150Z AUTO 15005KT 120V180 9999 NSC M01/M03 Q1019
TAF LOWS 152315Z 1600/1624 28005KT 9999 FEW050 BKN080 TX06/1613Z TNM02/1607Z 
     BECMG 1600/1603 15006KT CAVOK 
     TEMPO 1610/1616 32006KT
       
LOWW 160150Z 28019KT CAVOK 05/M02 Q1013 NOSIG
TAF LOWW 152315Z 1600/1706 29020G30KT 9999 FEW030 SCT060 BKN100 TX07/1614Z
TNM02/1704Z 
     TEMPO 1600/1604 29030G40KT 
     BECMG 1607/1609 29015G25KT CAVOK 
     BECMG 1611/1614 28012KT 
     BECMG 1615/1618 17006KT
       
LOXZ 152050Z 14003KT 15KM SCT050SC 00/M05 Q1015